createdAt,value
2018-08-22T00:00:51.186Z,18.50
2018-08-22T00:03:19.225Z,18.40
2018-08-22T00:05:47.256Z,18.40
2018-08-22T00:08:18.458Z,18.40
2018-08-22T00:10:46.687Z,18.30
2018-08-22T00:13:14.915Z,18.30
2018-08-22T00:15:43.026Z,18.30
2018-08-22T00:18:11.335Z,18.30
2018-08-22T00:20:39.481Z,18.30
2018-08-22T00:23:07.644Z,18.30
2018-08-22T00:25:36.349Z,18.20
2018-08-22T00:28:04.716Z,18.20
2018-08-22T00:30:32.819Z,18.10
2018-08-22T00:33:01.151Z,18.10
2018-08-22T00:35:29.440Z,18.10
2018-08-22T00:37:58.388Z,18.00
2018-08-22T00:40:26.500Z,18.00
2018-08-22T00:42:54.807Z,18.00
2018-08-22T00:45:22.964Z,18.00
2018-08-22T00:47:51.262Z,18.00
2018-08-22T00:50:19.479Z,17.90
2018-08-22T00:52:47.744Z,17.90
2018-08-22T00:55:16.024Z,17.90
2018-08-22T00:57:44.164Z,17.90
2018-08-22T01:00:12.424Z,17.80
2018-08-22T01:02:40.613Z,17.70
2018-08-22T01:05:08.903Z,17.70
2018-08-22T01:07:37.069Z,17.70
2018-08-22T01:10:06.151Z,17.70
2018-08-22T01:12:34.249Z,17.60
2018-08-22T01:15:02.494Z,17.60
2018-08-22T01:17:30.599Z,17.50
2018-08-22T01:19:58.898Z,17.50
2018-08-22T01:22:27.120Z,17.50
2018-08-22T01:24:55.444Z,17.50
2018-08-22T01:27:23.650Z,17.40
2018-08-22T01:29:53.212Z,17.40
2018-08-22T01:32:21.931Z,17.30
2018-08-22T01:34:51.078Z,17.30
2018-08-22T01:37:19.513Z,17.30
2018-08-22T01:39:48.246Z,17.20
2018-08-22T01:42:16.942Z,17.20
2018-08-22T01:44:45.550Z,17.20
2018-08-22T01:47:13.615Z,17.10
2018-08-22T01:49:42.164Z,17.10
2018-08-22T01:52:10.326Z,17.00
2018-08-22T01:54:38.600Z,17.00
2018-08-22T01:57:06.800Z,17.00
2018-08-22T01:59:35.079Z,17.00
2018-08-22T02:02:03.323Z,16.90
2018-08-22T02:04:32.221Z,16.90
2018-08-22T02:07:00.321Z,16.90
2018-08-22T02:09:28.599Z,16.80
2018-08-22T02:11:57.168Z,16.80
2018-08-22T02:14:25.632Z,16.80
2018-08-22T02:16:53.920Z,16.80
2018-08-22T02:19:22.375Z,16.80
2018-08-22T02:21:50.496Z,16.80
2018-08-22T02:24:18.989Z,16.80
2018-08-22T02:26:47.293Z,16.80
2018-08-22T02:29:15.689Z,16.80
2018-08-22T02:31:43.935Z,16.80
2018-08-22T02:34:12.173Z,16.80
2018-08-22T02:36:40.343Z,16.70
2018-08-22T02:39:09.155Z,16.70
2018-08-22T02:41:37.271Z,16.70
2018-08-22T02:44:05.527Z,16.70
2018-08-22T02:46:33.803Z,16.70
2018-08-22T02:49:01.927Z,16.70
2018-08-22T02:51:30.023Z,16.70
2018-08-22T02:53:58.101Z,16.70
2018-08-22T02:56:27.057Z,16.60
2018-08-22T02:58:55.434Z,16.60
2018-08-22T03:01:23.864Z,16.50
2018-08-22T03:03:52.414Z,16.50
2018-08-22T03:06:20.837Z,16.50
2018-08-22T03:08:48.970Z,16.40
2018-08-22T03:11:17.315Z,16.40
2018-08-22T03:13:45.502Z,16.40
2018-08-22T03:16:13.724Z,16.40
2018-08-22T03:18:42.592Z,16.40
2018-08-22T03:21:11.081Z,16.30
2018-08-22T03:23:39.278Z,16.30
2018-08-22T03:26:07.798Z,16.30
2018-08-22T03:28:35.934Z,16.40
2018-08-22T03:31:05.080Z,16.30
2018-08-22T03:33:33.204Z,16.30
2018-08-22T03:36:01.442Z,16.30
2018-08-22T03:38:29.594Z,16.20
2018-08-22T03:40:57.690Z,16.20
2018-08-22T03:43:26.566Z,16.20
2018-08-22T03:45:54.665Z,16.20
2018-08-22T03:48:22.984Z,16.20
2018-08-22T03:50:51.226Z,16.20
2018-08-22T03:53:19.475Z,16.20
2018-08-22T03:55:47.683Z,16.10
2018-08-22T03:58:15.973Z,16.10
2018-08-22T04:00:44.861Z,16.10
2018-08-22T04:03:13.167Z,16.10
2018-08-22T04:05:41.623Z,16.10
2018-08-22T04:08:09.865Z,16.20
2018-08-22T04:10:38.164Z,16.20
2018-08-22T04:13:06.490Z,16.20
2018-08-22T04:15:34.595Z,16.20
2018-08-22T04:18:02.935Z,16.20
2018-08-22T04:20:31.057Z,16.20
2018-08-22T04:22:59.367Z,16.20
2018-08-22T04:25:27.680Z,16.20
2018-08-22T04:27:55.950Z,16.30
2018-08-22T04:30:24.153Z,16.30
2018-08-22T04:32:52.304Z,16.20
2018-08-22T04:35:20.558Z,16.20
2018-08-22T04:37:49.135Z,16.20
2018-08-22T04:40:17.175Z,16.30
2018-08-22T04:42:45.552Z,16.30
2018-08-22T04:45:13.659Z,16.30
2018-08-22T04:47:41.854Z,16.30
2018-08-22T04:50:09.958Z,16.30
2018-08-22T04:52:38.122Z,16.30
2018-08-22T04:55:06.424Z,16.30
2018-08-22T04:57:34.715Z,16.40
2018-08-22T05:00:02.933Z,16.40
2018-08-22T05:02:31.702Z,16.40
2018-08-22T05:04:59.925Z,16.50
2018-08-22T05:07:28.158Z,16.50
2018-08-22T05:09:56.484Z,16.60
2018-08-22T05:12:24.873Z,16.60
2018-08-22T05:14:53.002Z,16.70
2018-08-22T05:17:21.401Z,16.70
2018-08-22T05:19:49.503Z,16.70
2018-08-22T05:22:17.686Z,16.80
2018-08-22T05:24:46.110Z,16.90
2018-08-22T05:27:14.419Z,16.90
2018-08-22T05:29:43.301Z,16.90
2018-08-22T05:32:12.045Z,17.00
2018-08-22T05:34:40.753Z,17.00
2018-08-22T05:37:08.809Z,17.10
2018-08-22T05:39:37.046Z,17.20
2018-08-22T05:42:05.479Z,17.20
2018-08-22T05:44:33.815Z,17.30
2018-08-22T05:47:02.145Z,17.40
2018-08-22T05:49:30.771Z,17.50
2018-08-22T05:51:59.611Z,18.10
2018-08-22T05:54:27.949Z,19.10
2018-08-22T05:56:56.227Z,20.00
2018-08-22T05:59:25.123Z,21.00
2018-08-22T06:01:53.286Z,21.80
2018-08-22T06:04:21.434Z,22.80
2018-08-22T06:06:49.563Z,23.60
2018-08-22T06:09:17.752Z,24.20
2018-08-22T06:11:45.998Z,24.80
2018-08-22T06:14:14.380Z,25.20
2018-08-22T06:16:42.609Z,25.60
2018-08-22T06:19:10.923Z,25.70
2018-08-22T06:21:39.036Z,24.80
2018-08-22T06:24:07.188Z,24.00
2018-08-22T06:26:35.403Z,23.30
2018-08-22T06:29:03.690Z,22.70
2018-08-22T06:31:31.782Z,22.30
2018-08-22T06:34:00.089Z,22.00
2018-08-22T06:36:28.230Z,21.90
2018-08-22T06:38:56.439Z,21.90
2018-08-22T06:41:24.614Z,21.80
2018-08-22T06:43:53.629Z,21.80
2018-08-22T06:46:21.807Z,21.90
2018-08-22T06:48:49.991Z,22.40
2018-08-22T06:51:18.934Z,23.10
2018-08-22T06:53:47.693Z,23.90
2018-08-22T06:56:15.768Z,24.80
2018-08-22T06:58:44.025Z,25.80
2018-08-22T07:01:12.201Z,26.80
2018-08-22T07:03:41.045Z,27.80
2018-08-22T07:06:10.114Z,28.90
2018-08-22T07:08:38.225Z,30.00
2018-08-22T07:11:06.386Z,31.10
2018-08-22T07:13:34.459Z,30.50
2018-08-22T07:16:02.848Z,31.00
2018-08-22T07:18:30.972Z,32.30
2018-08-22T07:20:59.070Z,33.30
2018-08-22T07:23:27.745Z,33.80
2018-08-22T07:25:56.161Z,33.90
2018-08-22T07:28:24.379Z,34.60
2018-08-22T07:30:52.715Z,34.60
2018-08-22T07:33:20.962Z,34.90
2018-08-22T07:35:49.356Z,35.50
2018-08-22T07:38:17.433Z,36.40
2018-08-22T07:40:45.734Z,37.00
2018-08-22T07:43:14.574Z,37.30
2018-08-22T07:45:42.764Z,36.30
2018-08-22T07:48:11.022Z,36.70
2018-08-22T07:50:39.856Z,37.30
2018-08-22T07:53:08.054Z,37.20
2018-08-22T07:55:39.670Z,37.70
2018-08-22T07:58:07.925Z,36.90
2018-08-22T08:00:36.060Z,37.40
2018-08-22T08:03:04.314Z,36.20
2018-08-22T08:05:32.492Z,36.90
2018-08-22T08:08:00.645Z,37.60
2018-08-22T08:10:31.998Z,38.40
2018-08-22T08:13:00.549Z,38.80
2018-08-22T08:15:28.640Z,39.90
2018-08-22T08:17:57.350Z,40.50
2018-08-22T08:20:25.610Z,39.40
2018-08-22T08:22:54.349Z,40.40
2018-08-22T08:25:22.468Z,40.10
2018-08-22T08:27:50.566Z,40.70
2018-08-22T08:30:18.700Z,42.30
2018-08-22T08:32:46.884Z,43.40
2018-08-22T08:35:15.044Z,44.10
2018-08-22T08:37:43.432Z,44.20
2018-08-22T08:40:11.866Z,43.70
2018-08-22T08:42:40.134Z,42.90
2018-08-22T08:45:09.680Z,43.30
2018-08-22T08:47:37.855Z,44.00
2018-08-22T08:50:06.113Z,43.90
2018-08-22T08:52:35.143Z,43.80
2018-08-22T08:55:03.451Z,44.70
2018-08-22T08:57:31.846Z,43.70
2018-08-22T09:00:00.379Z,44.40
2018-08-22T09:02:28.486Z,45.30
2018-08-22T09:04:56.671Z,45.40
2018-08-22T09:07:24.829Z,44.80
2018-08-22T09:09:52.933Z,44.70
2018-08-22T09:12:21.384Z,43.10
2018-08-22T09:14:49.763Z,44.00
2018-08-22T09:17:17.941Z,45.10
2018-08-22T09:19:46.135Z,45.60
2018-08-22T09:22:14.281Z,41.40
2018-08-22T09:24:42.711Z,41.50
2018-08-22T09:27:11.619Z,43.50
2018-08-22T09:29:39.919Z,45.40
2018-08-22T09:32:08.227Z,44.30
2018-08-22T09:34:36.415Z,43.50
2018-08-22T09:37:04.637Z,44.50
2018-08-22T09:39:32.885Z,45.00
2018-08-22T09:42:01.099Z,47.00
2018-08-22T09:44:29.968Z,46.40
2018-08-22T09:46:58.735Z,45.30
2018-08-22T09:49:27.869Z,43.10
2018-08-22T09:51:56.014Z,43.90
2018-08-22T09:54:24.205Z,43.10
2018-08-22T09:56:52.607Z,43.30
2018-08-22T09:59:20.811Z,42.90
2018-08-22T10:01:49.001Z,44.30
2018-08-22T10:04:17.238Z,45.40
2018-08-22T10:06:47.321Z,47.20
2018-08-22T10:09:20.870Z,45.30
2018-08-22T10:11:49.064Z,45.60
2018-08-22T10:14:17.296Z,45.30
2018-08-22T10:16:45.492Z,46.50
2018-08-22T10:19:13.627Z,47.50
2018-08-22T10:21:41.776Z,48.80
2018-08-22T10:24:10.059Z,50.20
2018-08-22T10:26:38.263Z,50.50
2018-08-22T10:29:06.500Z,48.10
2018-08-22T10:31:34.831Z,47.80
2018-08-22T10:34:03.023Z,48.70
2018-08-22T10:36:31.173Z,47.90
2018-08-22T10:38:59.323Z,46.70
2018-08-22T10:41:27.459Z,45.90
2018-08-22T10:43:55.703Z,45.30
2018-08-22T10:46:23.841Z,45.60
2018-08-22T10:48:52.549Z,46.10
2018-08-22T10:51:20.765Z,47.10
2018-08-22T10:53:49.029Z,47.50
2018-08-22T10:56:17.237Z,48.40
2018-08-22T10:58:45.368Z,47.10
2018-08-22T11:01:13.544Z,47.00
2018-08-22T11:03:41.681Z,46.80
2018-08-22T11:06:09.995Z,47.00
2018-08-22T11:08:38.167Z,46.80
2018-08-22T11:11:06.379Z,47.60
2018-08-22T11:13:34.581Z,47.40
2018-08-22T11:16:02.882Z,48.30
2018-08-22T11:18:31.080Z,46.00
2018-08-22T11:21:16.499Z,45.30
2018-08-22T11:24:01.810Z,46.90
2018-08-22T11:26:47.080Z,48.30
2018-08-22T11:29:32.506Z,48.70
2018-08-22T11:32:17.941Z,48.80
2018-08-22T11:34:46.193Z,49.30
2018-08-22T11:37:15.209Z,49.20
2018-08-22T11:39:44.812Z,48.00
2018-08-22T11:42:13.112Z,46.10
2018-08-22T11:44:41.309Z,46.90
2018-08-22T11:47:09.546Z,48.30
2018-08-22T11:49:37.764Z,49.60
2018-08-22T11:52:05.978Z,49.90
2018-08-22T11:54:35.229Z,49.10
2018-08-22T11:57:03.524Z,48.30
2018-08-22T11:59:31.778Z,47.90
2018-08-22T12:02:00.044Z,48.70
2018-08-22T12:04:28.250Z,49.10
2018-08-22T12:06:56.521Z,49.40
2018-08-22T12:09:24.778Z,48.90
2018-08-22T12:11:53.042Z,48.80
2018-08-22T12:14:21.232Z,49.90
2018-08-22T12:16:50.071Z,48.20
2018-08-22T12:19:18.945Z,48.80
2018-08-22T12:21:47.265Z,47.90
2018-08-22T12:24:15.458Z,48.30
2018-08-22T12:26:43.651Z,47.70
2018-08-22T12:29:12.489Z,48.60
2018-08-22T12:31:40.700Z,48.80
2018-08-22T12:34:08.889Z,49.00
2018-08-22T12:36:37.197Z,48.70
2018-08-22T12:39:07.394Z,48.10
2018-08-22T12:41:35.668Z,48.60
2018-08-22T12:44:03.938Z,47.20
2018-08-22T12:46:32.689Z,46.40
2018-08-22T12:49:01.015Z,47.10
2018-08-22T12:51:29.207Z,45.90
2018-08-22T12:53:57.463Z,47.10
2018-08-22T12:56:25.693Z,46.60
2018-08-22T12:58:53.910Z,44.60
2018-08-22T13:01:22.208Z,44.30
2018-08-22T13:03:50.406Z,45.00
2018-08-22T13:06:18.600Z,45.80
2018-08-22T13:08:46.750Z,44.80
2018-08-22T13:11:15.051Z,45.40
2018-08-22T13:13:43.104Z,46.70
2018-08-22T13:16:11.314Z,47.60
2018-08-22T13:18:39.579Z,48.30
2018-08-22T13:21:07.778Z,48.80
2018-08-22T13:23:36.018Z,47.00
2018-08-22T13:26:04.312Z,46.70
2018-08-22T13:28:32.560Z,47.10
2018-08-22T13:31:00.776Z,46.90
2018-08-22T13:33:29.007Z,46.60
2018-08-22T13:35:57.259Z,46.70
2018-08-22T13:38:25.575Z,46.60
2018-08-22T13:40:53.759Z,46.90
2018-08-22T13:43:22.090Z,47.30
2018-08-22T13:45:50.330Z,46.20
2018-08-22T13:48:18.444Z,44.80
2018-08-22T13:50:46.748Z,45.10
2018-08-22T13:53:15.001Z,46.00
2018-08-22T13:55:43.156Z,46.70
2018-08-22T13:58:11.382Z,46.60
2018-08-22T14:00:39.625Z,45.70
2018-08-22T14:03:07.815Z,45.60
2018-08-22T14:05:36.066Z,45.00
2018-08-22T14:08:04.325Z,44.60
2018-08-22T14:10:32.520Z,43.20
2018-08-22T14:13:00.839Z,43.00
2018-08-22T14:15:29.023Z,42.70
2018-08-22T14:18:03.797Z,42.70
2018-08-22T14:20:31.997Z,42.70
2018-08-22T14:23:00.253Z,42.80
2018-08-22T14:25:28.415Z,42.60
2018-08-22T14:27:56.639Z,42.30
2018-08-22T14:30:24.850Z,41.30
2018-08-22T14:32:53.160Z,40.50
2018-08-22T14:35:21.339Z,39.40
2018-08-22T14:37:49.495Z,38.70
2018-08-22T14:40:17.711Z,38.00
2018-08-22T14:42:45.940Z,37.10
2018-08-22T14:45:14.726Z,36.50
2018-08-22T14:47:43.045Z,35.90
2018-08-22T14:50:11.194Z,35.70
2018-08-22T14:52:39.427Z,35.40
2018-08-22T14:55:07.540Z,35.30
2018-08-22T14:57:35.754Z,34.90
2018-08-22T15:00:04.218Z,34.20
2018-08-22T15:02:32.485Z,34.10
2018-08-22T15:05:00.752Z,34.10
2018-08-22T15:07:29.046Z,33.90
2018-08-22T15:09:57.317Z,33.70
2018-08-22T15:12:25.519Z,33.60
2018-08-22T15:14:53.749Z,33.30
2018-08-22T15:17:21.954Z,33.10
2018-08-22T15:19:50.189Z,33.10
2018-08-22T15:22:18.471Z,33.10
2018-08-22T15:24:46.760Z,33.20
2018-08-22T15:27:15.065Z,33.00
2018-08-22T15:29:43.297Z,33.00
2018-08-22T15:32:11.565Z,33.00
2018-08-22T15:34:48.060Z,33.00
2018-08-22T15:37:16.360Z,33.00
2018-08-22T15:39:44.487Z,33.00
2018-08-22T15:42:12.726Z,32.90
2018-08-22T15:44:40.922Z,32.80
2018-08-22T15:47:10.209Z,32.80
2018-08-22T15:49:38.404Z,32.80
2018-08-22T15:52:06.551Z,32.80
2018-08-22T15:54:34.988Z,32.60
2018-08-22T15:57:03.362Z,32.40
2018-08-22T15:59:31.510Z,32.30
2018-08-22T16:01:59.648Z,32.30
2018-08-22T16:04:27.824Z,32.30
2018-08-22T16:07:06.875Z,32.30
2018-08-22T16:09:35.669Z,32.30
2018-08-22T16:12:03.820Z,32.30
2018-08-22T16:14:32.048Z,32.30
2018-08-22T16:17:00.085Z,32.20
2018-08-22T16:19:28.272Z,32.20
2018-08-22T16:21:56.529Z,32.10
2018-08-22T16:24:26.187Z,31.90
2018-08-22T16:26:54.368Z,31.70
2018-08-22T16:29:22.563Z,31.70
2018-08-22T16:31:50.791Z,31.60
2018-08-22T16:34:18.948Z,31.60
2018-08-22T16:36:47.091Z,31.50
2018-08-22T16:39:36.004Z,31.40
2018-08-22T16:42:04.311Z,31.40
2018-08-22T16:44:32.511Z,31.30
2018-08-22T16:47:00.831Z,31.20
2018-08-22T16:49:29.274Z,31.10
2018-08-22T16:51:57.426Z,31.10
2018-08-22T16:54:26.413Z,31.10
2018-08-22T16:56:54.511Z,31.00
2018-08-22T16:59:23.311Z,30.90
2018-08-22T17:01:51.698Z,30.80
2018-08-22T17:04:19.716Z,30.70
2018-08-22T17:06:48.271Z,30.70
2018-08-22T17:09:16.376Z,30.60
2018-08-22T17:11:44.564Z,30.50
2018-08-22T17:14:12.730Z,30.50
2018-08-22T17:16:41.593Z,30.40
2018-08-22T17:19:09.791Z,30.40
2018-08-22T17:21:37.932Z,30.30
2018-08-22T17:24:06.159Z,30.20
2018-08-22T17:26:34.326Z,30.10
2018-08-22T17:29:02.529Z,29.90
2018-08-22T17:31:30.801Z,29.80
2018-08-22T17:34:00.367Z,29.70
2018-08-22T17:36:28.638Z,29.70
2018-08-22T17:38:57.796Z,29.60
2018-08-22T17:41:27.736Z,29.50
2018-08-22T17:44:11.780Z,29.40
2018-08-22T17:46:42.097Z,29.30
2018-08-22T17:49:10.303Z,29.20
2018-08-22T17:52:02.233Z,29.20
2018-08-22T17:54:30.382Z,29.00
2018-08-22T17:57:24.344Z,28.80
2018-08-22T17:59:52.598Z,28.70
2018-08-22T18:02:20.826Z,28.60
2018-08-22T18:04:56.758Z,28.50
2018-08-22T18:07:25.286Z,28.40
2018-08-22T18:09:53.427Z,28.30
2018-08-22T18:12:26.067Z,28.20
2018-08-22T18:14:57.492Z,28.10
2018-08-22T18:17:25.707Z,28.00
2018-08-22T18:19:53.959Z,27.80
2018-08-22T18:22:22.658Z,27.70
2018-08-22T18:24:56.304Z,27.70
2018-08-22T18:27:24.646Z,27.60
2018-08-22T18:29:52.839Z,27.50
2018-08-22T18:32:21.074Z,27.40
2018-08-22T18:35:08.665Z,27.30
2018-08-22T18:37:37.148Z,27.20
2018-08-22T18:40:16.408Z,27.20
2018-08-22T18:42:48.411Z,27.10
2018-08-22T18:45:19.119Z,27.00
2018-08-22T18:47:47.277Z,26.90
2018-08-22T18:50:15.416Z,26.90
2018-08-22T18:52:46.829Z,26.90
2018-08-22T18:55:15.056Z,26.90
2018-08-22T18:57:43.482Z,26.80
2018-08-22T19:00:11.733Z,26.80
2018-08-22T19:02:39.878Z,26.80
2018-08-22T19:05:32.999Z,26.70
2018-08-22T19:08:07.046Z,26.70
2018-08-22T19:10:37.464Z,26.60
2018-08-22T19:13:24.548Z,26.60
2018-08-22T19:15:57.024Z,26.50
2018-08-22T19:18:25.528Z,26.50
2018-08-22T19:20:57.428Z,26.30
2018-08-22T19:23:25.673Z,26.30
2018-08-22T19:25:54.485Z,26.20
2018-08-22T19:28:22.992Z,26.20
2018-08-22T19:30:51.338Z,26.10
2018-08-22T19:33:21.680Z,26.10
2018-08-22T19:35:49.942Z,26.00
2018-08-22T19:38:20.118Z,25.90
2018-08-22T19:40:48.416Z,25.90
2018-08-22T19:43:16.577Z,25.80
2018-08-22T19:45:45.066Z,25.80
2018-08-22T19:48:13.277Z,25.90
2018-08-22T19:50:41.394Z,25.90
2018-08-22T19:53:09.581Z,25.80
2018-08-22T19:55:38.658Z,25.80
2018-08-22T19:58:07.364Z,25.70
2018-08-22T20:00:35.670Z,25.60
2018-08-22T20:03:04.412Z,25.50
2018-08-22T20:05:57.157Z,25.50
2018-08-22T20:08:30.754Z,25.50
2018-08-22T20:10:58.975Z,25.50
2018-08-22T20:13:43.713Z,25.50
2018-08-22T20:16:11.994Z,25.40
2018-08-22T20:18:40.444Z,25.50
2018-08-22T20:21:13.116Z,25.40
2018-08-22T20:23:41.281Z,25.40
2018-08-22T20:26:09.411Z,25.30
2018-08-22T20:28:41.512Z,25.20
2018-08-22T20:31:11.411Z,25.20
2018-08-22T20:33:44.371Z,25.20
2018-08-22T20:36:12.898Z,25.10
2018-08-22T20:38:41.167Z,25.10
2018-08-22T20:41:09.721Z,25.10
2018-08-22T20:43:38.153Z,25.10
2018-08-22T20:46:06.301Z,25.00
2018-08-22T20:48:34.473Z,25.00
2018-08-22T20:51:02.585Z,25.00
2018-08-22T20:53:30.871Z,24.90
2018-08-22T20:55:59.172Z,24.90
2018-08-22T20:58:30.448Z,24.90
2018-08-22T21:00:59.429Z,24.90
2018-08-22T21:03:27.624Z,24.90
2018-08-22T21:05:55.976Z,24.80
2018-08-22T21:08:24.328Z,24.70
2018-08-22T21:10:52.581Z,24.60
2018-08-22T21:13:26.473Z,24.60
2018-08-22T21:15:55.234Z,24.60
2018-08-22T21:18:23.709Z,24.60
2018-08-22T21:20:53.706Z,24.60
2018-08-22T21:23:21.883Z,24.60
2018-08-22T21:25:50.198Z,24.50
2018-08-22T21:28:28.649Z,24.40
2018-08-22T21:31:00.096Z,24.40
2018-08-22T21:33:29.520Z,24.40
2018-08-22T21:35:57.818Z,24.30
2018-08-22T21:38:26.048Z,24.30
2018-08-22T21:40:54.320Z,24.20
2018-08-22T21:43:22.777Z,24.10
2018-08-22T21:45:51.426Z,24.00
2018-08-22T21:48:23.737Z,23.90
2018-08-22T21:50:52.036Z,23.80
2018-08-22T21:53:20.238Z,23.80
2018-08-22T21:55:49.814Z,23.80
2018-08-22T21:58:18.044Z,23.80
2018-08-22T22:00:46.897Z,23.80
2018-08-22T22:03:19.815Z,23.70
2018-08-22T22:05:54.732Z,23.70
2018-08-22T22:08:23.584Z,23.70
2018-08-22T22:10:59.679Z,23.70
2018-08-22T22:13:28.318Z,23.70
2018-08-22T22:16:00.026Z,23.60
2018-08-22T22:18:29.868Z,23.60
2018-08-22T22:21:10.337Z,23.60
2018-08-22T22:23:48.425Z,23.50
2018-08-22T22:26:17.878Z,23.50
2018-08-22T22:28:46.214Z,23.40
2018-08-22T22:31:15.787Z,23.40
2018-08-22T22:33:53.939Z,23.40
2018-08-22T22:36:22.146Z,23.40
2018-08-22T22:38:50.450Z,23.40
2018-08-22T22:41:18.654Z,23.30
2018-08-22T22:43:47.013Z,23.30
2018-08-22T22:46:15.206Z,23.30
2018-08-22T22:48:44.531Z,23.30
2018-08-22T22:51:12.805Z,23.20
2018-08-22T22:53:41.032Z,23.20
2018-08-22T22:56:09.305Z,23.20
2018-08-22T22:58:37.501Z,23.20
2018-08-22T23:01:06.405Z,23.10
2018-08-22T23:03:34.822Z,23.10
2018-08-22T23:06:03.150Z,23.10
2018-08-22T23:08:31.347Z,23.10
2018-08-22T23:10:59.523Z,23.00
2018-08-22T23:13:28.689Z,23.00
2018-08-22T23:15:56.893Z,22.90
2018-08-22T23:18:25.269Z,22.90
2018-08-22T23:20:53.417Z,22.90
2018-08-22T23:23:33.922Z,22.80
2018-08-22T23:26:12.315Z,22.80
2018-08-22T23:28:41.421Z,22.80
2018-08-22T23:31:09.587Z,22.80
2018-08-22T23:33:37.866Z,22.80
2018-08-22T23:36:06.080Z,22.70
2018-08-22T23:38:35.855Z,22.70
2018-08-22T23:41:04.083Z,22.70
2018-08-22T23:43:40.090Z,22.70
2018-08-22T23:46:09.919Z,22.70
2018-08-22T23:48:38.335Z,22.60
2018-08-22T23:51:11.563Z,22.60
2018-08-22T23:53:47.125Z,22.60
2018-08-22T23:56:19.774Z,22.50
2018-08-22T23:58:48.830Z,22.50
